aviador You're here:

KAMG Decoded Metar

ALMA in GA, USA
Report Time2018-05-25 08:53:00
UTC Time2018-05-25 09:06:21
Flight Rules lifr LIFR
WindCalm
Visibility805 m
Phenomena:Fog
Clouds:N/A
Expected CloudBase > 400 ft AGL from Temp-Dew spread
Ceiling400 ft
Temp21°C (ISA +6)
Dew Point20°C (94% RH)
QNH1017 hPa
Density Alt1,112 ft
Elevation194 ft
Report Wrong Elevation
Raw Report
METAR KAMG 250853Z AUTO 00000KT 1/2SM FG VV004 21/20 A3004 RMK AO2
SLP168 T02060200 55007 $=

Extra information for KAMG:More info

Metar Taf Metar & Taf Last 4 Metars F.Rules Stats Wind Profile Meteogram Temp Stats Airport Information Weather charts Add Link Nearby VenuesMetar ALERT Operation Metar Decoded Social comments

AIRNAV info for KAMG